sensor_id;sensor_type;location;lat;lon;timestamp;P1;durP1;ratioP1;P2;durP2;ratioP2
16520;SDS011;8373;48.110;11.522;2022-09-09T04:03:10;15.00;;;6.70;;
16520;SDS011;8373;48.110;11.522;2022-09-09T04:05:38;13.10;;;5.40;;
16520;SDS011;8373;48.110;11.522;2022-09-09T04:08:07;7.70;;;4.93;;
16520;SDS011;8373;48.110;11.522;2022-09-09T04:10:34;8.23;;;4.60;;
16520;SDS011;8373;48.110;11.522;2022-09-09T04:13:02;10.03;;;4.37;;
16520;SDS011;8373;48.110;11.522;2022-09-09T04:15:29;16.80;;;3.93;;
16520;SDS011;8373;48.110;11.522;2022-09-09T04:17:57;7.60;;;3.83;;
16520;SDS011;8373;48.110;11.522;2022-09-09T04:20:25;8.20;;;3.63;;
16520;SDS011;8373;48.110;11.522;2022-09-09T04:22:52;11.13;;;3.73;;
16520;SDS011;8373;48.110;11.522;2022-09-09T04:25:19;11.77;;;3.73;;
16520;SDS011;8373;48.110;11.522;2022-09-09T04:27:46;9.70;;;3.60;;
16520;SDS011;8373;48.110;11.522;2022-09-09T04:30:15;14.10;;;4.60;;
16520;SDS011;8373;48.110;11.522;2022-09-09T04:32:42;9.57;;;4.23;;
16520;SDS011;8373;48.110;11.522;2022-09-09T04:35:09;8.20;;;4.07;;
16520;SDS011;8373;48.110;11.522;2022-09-09T04:37:38;12.27;;;4.30;;
16520;SDS011;8373;48.110;11.522;2022-09-09T04:40:06;8.20;;;3.60;;
16520;SDS011;8373;48.110;11.522;2022-09-09T04:42:34;9.50;;;3.83;;
16520;SDS011;8373;48.110;11.522;2022-09-09T04:45:02;20.17;;;4.13;;
16520;SDS011;8373;48.110;11.522;2022-09-09T04:47:29;9.93;;;3.63;;
16520;SDS011;8373;48.110;11.522;2022-09-09T04:49:56;11.87;;;4.80;;
16520;SDS011;8373;48.110;11.522;2022-09-09T04:52:23;9.20;;;3.70;;
16520;SDS011;8373;48.110;11.522;2022-09-09T04:54:51;9.40;;;4.73;;
16520;SDS011;8373;48.110;11.522;2022-09-09T04:57:19;15.80;;;4.63;;
16520;SDS011;8373;48.110;11.522;2022-09-09T04:59:46;16.67;;;4.47;;
16520;SDS011;8373;48.110;11.522;2022-09-09T05:02:13;11.13;;;4.90;;
16520;SDS011;8373;48.110;11.522;2022-09-09T05:04:40;19.63;;;5.60;;
16520;SDS011;8373;48.110;11.522;2022-09-09T05:07:06;10.37;;;4.70;;
16520;SDS011;8373;48.110;11.522;2022-09-09T05:09:34;19.63;;;5.30;;
16520;SDS011;8373;48.110;11.522;2022-09-09T05:12:02;11.20;;;4.07;;
16520;SDS011;8373;48.110;11.522;2022-09-09T05:14:29;15.53;;;5.50;;
16520;SDS011;8373;48.110;11.522;2022-09-09T05:16:56;13.10;;;4.10;;
16520;SDS011;8373;48.110;11.522;2022-09-09T05:19:23;13.17;;;5.27;;
16520;SDS011;8373;48.110;11.522;2022-09-09T05:21:50;15.00;;;4.37;;
16520;SDS011;8373;48.110;11.522;2022-09-09T05:24:18;9.60;;;4.80;;
16520;SDS011;8373;48.110;11.522;2022-09-09T05:26:45;15.70;;;4.53;;
16520;SDS011;8373;48.110;11.522;2022-09-09T05:29:13;8.23;;;4.37;;
16520;SDS011;8373;48.110;11.522;2022-09-09T05:31:41;14.70;;;4.60;;
16520;SDS011;8373;48.110;11.522;2022-09-09T05:34:08;7.93;;;4.10;;
16520;SDS011;8373;48.110;11.522;2022-09-09T05:36:35;11.13;;;4.57;;
16520;SDS011;8373;48.110;11.522;2022-09-09T05:39:02;9.73;;;4.00;;
16520;SDS011;8373;48.110;11.522;2022-09-09T05:41:29;9.07;;;4.67;;
16520;SDS011;8373;48.110;11.522;2022-09-09T05:43:56;10.13;;;4.57;;
16520;SDS011;8373;48.110;11.522;2022-09-09T05:46:27;8.80;;;4.33;;
16520;SDS011;8373;48.110;11.522;2022-09-09T05:48:55;10.43;;;4.27;;
16520;SDS011;8373;48.110;11.522;2022-09-09T05:51:24;12.37;;;4.57;;
16520;SDS011;8373;48.110;11.522;2022-09-09T05:53:53;10.40;;;3.63;;
16520;SDS011;8373;48.110;11.522;2022-09-09T05:56:24;9.90;;;4.07;;
16520;SDS011;8373;48.110;11.522;2022-09-09T05:58:52;11.53;;;4.53;;
16520;SDS011;8373;48.110;11.522;2022-09-09T06:01:21;13.50;;;4.23;;
16520;SDS011;8373;48.110;11.522;2022-09-09T06:03:50;9.07;;;3.63;;
16520;SDS011;8373;48.110;11.522;2022-09-09T06:06:19;7.17;;;3.33;;
16520;SDS011;8373;48.110;11.522;2022-09-09T06:08:47;24.87;;;5.07;;
16520;SDS011;8373;48.110;11.522;2022-09-09T06:11:17;13.53;;;4.60;;
16520;SDS011;8373;48.110;11.522;2022-09-09T06:13:45;8.10;;;3.47;;
16520;SDS011;8373;48.110;11.522;2022-09-09T06:16:13;7.77;;;3.93;;
16520;SDS011;8373;48.110;11.522;2022-09-09T06:18:41;8.20;;;3.70;;
16520;SDS011;8373;48.110;11.522;2022-09-09T06:21:11;9.80;;;4.27;;
16520;SDS011;8373;48.110;11.522;2022-09-09T06:23:41;8.30;;;3.43;;
16520;SDS011;8373;48.110;11.522;2022-09-09T06:26:10;18.63;;;5.00;;
16520;SDS011;8373;48.110;11.522;2022-09-09T06:28:39;8.97;;;3.83;;
16520;SDS011;8373;48.110;11.522;2022-09-09T06:31:08;8.53;;;4.00;;
16520;SDS011;8373;48.110;11.522;2022-09-09T06:33:37;8.60;;;3.40;;
16520;SDS011;8373;48.110;11.522;2022-09-09T06:36:06;10.20;;;4.43;;
16520;SDS011;8373;48.110;11.522;2022-09-09T06:38:38;10.47;;;3.80;;
16520;SDS011;8373;48.110;11.522;2022-09-09T06:41:05;9.40;;;3.77;;
16520;SDS011;8373;48.110;11.522;2022-09-09T06:43:33;11.63;;;4.07;;
16520;SDS011;8373;48.110;11.522;2022-09-09T06:46:01;7.87;;;3.60;;
16520;SDS011;8373;48.110;11.522;2022-09-09T06:48:29;11.47;;;4.13;;
16520;SDS011;8373;48.110;11.522;2022-09-09T06:51:00;14.10;;;4.23;;
16520;SDS011;8373;48.110;11.522;2022-09-09T06:53:27;7.73;;;3.50;;
16520;SDS011;8373;48.110;11.522;2022-09-09T06:55:56;8.83;;;4.40;;
16520;SDS011;8373;48.110;11.522;2022-09-09T06:58:23;8.27;;;3.17;;
16520;SDS011;8373;48.110;11.522;2022-09-09T07:00:50;7.53;;;3.40;;
16520;SDS011;8373;48.110;11.522;2022-09-09T07:03:16;17.50;;;4.00;;
16520;SDS011;8373;48.110;11.522;2022-09-09T07:05:44;10.83;;;3.50;;
16520;SDS011;8373;48.110;11.522;2022-09-09T07:08:21;13.73;;;3.73;;
16520;SDS011;8373;48.110;11.522;2022-09-09T07:10:48;8.50;;;3.30;;
16520;SDS011;8373;48.110;11.522;2022-09-09T07:13:18;11.53;;;3.63;;
16520;SDS011;8373;48.110;11.522;2022-09-09T07:15:46;13.53;;;3.80;;
16520;SDS011;8373;48.110;11.522;2022-09-09T07:18:13;6.50;;;3.33;;
16520;SDS011;8373;48.110;11.522;2022-09-09T07:20:40;8.67;;;3.23;;
16520;SDS011;8373;48.110;11.522;2022-09-09T07:23:07;7.90;;;3.00;;
16520;SDS011;8373;48.110;11.522;2022-09-09T07:25:34;8.60;;;3.53;;
16520;SDS011;8373;48.110;11.522;2022-09-09T07:28:01;7.53;;;3.50;;
16520;SDS011;8373;48.110;11.522;2022-09-09T07:30:30;9.87;;;3.70;;
16520;SDS011;8373;48.110;11.522;2022-09-09T07:32:57;13.37;;;3.90;;
16520;SDS011;8373;48.110;11.522;2022-09-09T07:35:24;7.70;;;3.63;;
16520;SDS011;8373;48.110;11.522;2022-09-09T07:37:52;7.57;;;4.00;;
16520;SDS011;8373;48.110;11.522;2022-09-09T07:40:19;8.23;;;3.53;;
16520;SDS011;8373;48.110;11.522;2022-09-09T07:42:47;7.83;;;3.10;;
16520;SDS011;8373;48.110;11.522;2022-09-09T07:45:14;8.43;;;3.33;;
16520;SDS011;8373;48.110;11.522;2022-09-09T07:47:42;6.53;;;3.20;;
16520;SDS011;8373;48.110;11.522;2022-09-09T07:50:09;12.17;;;3.83;;
16520;SDS011;8373;48.110;11.522;2022-09-09T07:52:36;8.10;;;3.10;;
16520;SDS011;8373;48.110;11.522;2022-09-09T07:55:03;7.70;;;3.33;;
16520;SDS011;8373;48.110;11.522;2022-09-09T07:57:31;8.10;;;3.30;;
16520;SDS011;8373;48.110;11.522;2022-09-09T07:59:58;10.20;;;3.87;;
16520;SDS011;8373;48.110;11.522;2022-09-09T08:02:25;9.20;;;3.30;;
16520;SDS011;8373;48.110;11.522;2022-09-09T08:04:55;8.10;;;3.27;;
16520;SDS011;8373;48.110;11.522;2022-09-09T08:07:22;7.40;;;4.00;;
16520;SDS011;8373;48.110;11.522;2022-09-09T08:09:49;8.33;;;3.40;;
16520;SDS011;8373;48.110;11.522;2022-09-09T08:12:16;10.33;;;3.97;;
16520;SDS011;8373;48.110;11.522;2022-09-09T08:14:43;9.27;;;3.20;;
16520;SDS011;8373;48.110;11.522;2022-09-09T08:17:10;7.87;;;3.60;;
16520;SDS011;8373;48.110;11.522;2022-09-09T08:19:37;6.67;;;3.30;;
16520;SDS011;8373;48.110;11.522;2022-09-09T08:22:06;6.70;;;3.17;;
16520;SDS011;8373;48.110;11.522;2022-09-09T08:24:33;10.53;;;3.57;;
16520;SDS011;8373;48.110;11.522;2022-09-09T08:27:01;9.40;;;2.97;;
16520;SDS011;8373;48.110;11.522;2022-09-09T08:29:28;6.27;;;2.73;;
16520;SDS011;8373;48.110;11.522;2022-09-09T08:31:55;13.00;;;4.20;;
16520;SDS011;8373;48.110;11.522;2022-09-09T08:34:25;7.53;;;3.63;;
16520;SDS011;8373;48.110;11.522;2022-09-09T08:36:53;7.63;;;3.50;;
16520;SDS011;8373;48.110;11.522;2022-09-09T08:39:21;8.30;;;3.43;;
16520;SDS011;8373;48.110;11.522;2022-09-09T08:41:53;11.53;;;3.10;;
16520;SDS011;8373;48.110;11.522;2022-09-09T08:44:47;9.40;;;4.03;;
16520;SDS011;8373;48.110;11.522;2022-09-09T08:47:21;8.20;;;3.90;;
16520;SDS011;8373;48.110;11.522;2022-09-09T08:50:02;7.43;;;3.10;;
16520;SDS011;8373;48.110;11.522;2022-09-09T08:52:40;9.00;;;3.23;;
16520;SDS011;8373;48.110;11.522;2022-09-09T08:55:19;8.47;;;3.73;;
16520;SDS011;8373;48.110;11.522;2022-09-09T09:00:19;8.83;;;4.00;;
16520;SDS011;8373;48.110;11.522;2022-09-09T09:02:48;6.97;;;3.33;;
16520;SDS011;8373;48.110;11.522;2022-09-09T09:05:30;11.40;;;3.53;;
16520;SDS011;8373;48.110;11.522;2022-09-09T09:08:05;17.53;;;3.67;;
16520;SDS011;8373;48.110;11.522;2022-09-09T09:10:46;6.83;;;3.40;;
16520;SDS011;8373;48.110;11.522;2022-09-09T09:13:17;9.83;;;3.53;;
16520;SDS011;8373;48.110;11.522;2022-09-09T09:15:48;5.77;;;3.00;;
16520;SDS011;8373;48.110;11.522;2022-09-09T09:18:20;7.27;;;3.13;;
16520;SDS011;8373;48.110;11.522;2022-09-09T09:20:50;10.13;;;3.43;;
16520;SDS011;8373;48.110;11.522;2022-09-09T09:23:32;12.40;;;3.67;;
16520;SDS011;8373;48.110;11.522;2022-09-09T09:26:09;7.30;;;3.20;;
16520;SDS011;8373;48.110;11.522;2022-09-09T09:28:37;12.00;;;3.70;;
16520;SDS011;8373;48.110;11.522;2022-09-09T09:31:05;8.10;;;4.03;;
16520;SDS011;8373;48.110;11.522;2022-09-09T09:33:34;18.93;;;3.63;;
16520;SDS011;8373;48.110;11.522;2022-09-09T09:36:08;10.13;;;3.70;;
16520;SDS011;8373;48.110;11.522;2022-09-09T09:38:35;10.07;;;3.90;;
16520;SDS011;8373;48.110;11.522;2022-09-09T09:41:03;7.67;;;3.40;;
16520;SDS011;8373;48.110;11.522;2022-09-09T09:43:33;8.77;;;3.40;;
16520;SDS011;8373;48.110;11.522;2022-09-09T09:46:03;11.67;;;4.20;;
16520;SDS011;8373;48.110;11.522;2022-09-09T09:48:31;15.27;;;3.63;;
16520;SDS011;8373;48.110;11.522;2022-09-09T09:50:59;6.57;;;3.33;;
16520;SDS011;8373;48.110;11.522;2022-09-09T09:53:29;10.87;;;3.63;;
16520;SDS011;8373;48.110;11.522;2022-09-09T09:55:57;10.40;;;4.17;;
16520;SDS011;8373;48.110;11.522;2022-09-09T09:58:26;13.13;;;3.60;;
16520;SDS011;8373;48.110;11.522;2022-09-09T10:01:00;8.20;;;3.13;;
16520;SDS011;8373;48.110;11.522;2022-09-09T10:03:28;8.93;;;3.80;;
16520;SDS011;8373;48.110;11.522;2022-09-09T10:05:56;9.30;;;3.80;;
16520;SDS011;8373;48.110;11.522;2022-09-09T10:08:23;9.20;;;4.10;;
16520;SDS011;8373;48.110;11.522;2022-09-09T10:11:02;13.10;;;3.30;;
16520;SDS011;8373;48.110;11.522;2022-09-09T10:13:53;11.17;;;4.17;;
16520;SDS011;8373;48.110;11.522;2022-09-09T10:16:32;9.93;;;3.50;;
16520;SDS011;8373;48.110;11.522;2022-09-09T10:19:13;8.73;;;3.60;;
16520;SDS011;8373;48.110;11.522;2022-09-09T10:21:54;9.70;;;3.30;;
16520;SDS011;8373;48.110;11.522;2022-09-09T10:27:43;7.47;;;3.03;;
16520;SDS011;8373;48.110;11.522;2022-09-09T10:30:20;9.87;;;2.93;;
16520;SDS011;8373;48.110;11.522;2022-09-09T10:32:53;9.43;;;3.43;;
16520;SDS011;8373;48.110;11.522;2022-09-09T10:35:29;9.50;;;3.30;;
16520;SDS011;8373;48.110;11.522;2022-09-09T10:38:14;6.83;;;3.30;;
16520;SDS011;8373;48.110;11.522;2022-09-09T10:40:46;8.77;;;3.30;;
16520;SDS011;8373;48.110;11.522;2022-09-09T10:43:49;7.50;;;3.00;;
16520;SDS011;8373;48.110;11.522;2022-09-09T10:46:35;7.00;;;4.17;;
16520;SDS011;8373;48.110;11.522;2022-09-09T10:49:20;9.20;;;4.10;;
16520;SDS011;8373;48.110;11.522;2022-09-09T10:51:59;9.77;;;3.43;;
16520;SDS011;8373;48.110;11.522;2022-09-09T10:54:36;8.20;;;4.03;;
16520;SDS011;8373;48.110;11.522;2022-09-09T10:57:16;8.50;;;3.30;;
16520;SDS011;8373;48.110;11.522;2022-09-09T10:59:50;7.27;;;3.40;;
16520;SDS011;8373;48.110;11.522;2022-09-09T11:02:24;8.53;;;3.20;;
16520;SDS011;8373;48.110;11.522;2022-09-09T11:04:57;6.63;;;3.07;;
16520;SDS011;8373;48.110;11.522;2022-09-09T11:07:29;7.97;;;2.80;;
16520;SDS011;8373;48.110;11.522;2022-09-09T11:10:04;6.20;;;3.03;;
16520;SDS011;8373;48.110;11.522;2022-09-09T11:12:42;11.83;;;3.23;;
16520;SDS011;8373;48.110;11.522;2022-09-09T11:15:14;17.03;;;4.10;;
16520;SDS011;8373;48.110;11.522;2022-09-09T11:17:46;8.43;;;3.33;;
16520;SDS011;8373;48.110;11.522;2022-09-09T11:20:18;7.50;;;3.03;;
16520;SDS011;8373;48.110;11.522;2022-09-09T11:22:46;5.80;;;2.93;;
16520;SDS011;8373;48.110;11.522;2022-09-09T11:25:18;7.47;;;4.30;;
16520;SDS011;8373;48.110;11.522;2022-09-09T11:28:02;13.67;;;4.60;;
16520;SDS011;8373;48.110;11.522;2022-09-09T11:30:45;20.00;;;4.10;;
16520;SDS011;8373;48.110;11.522;2022-09-09T11:33:27;16.30;;;3.93;;
16520;SDS011;8373;48.110;11.522;2022-09-09T11:36:24;9.70;;;3.80;;
16520;SDS011;8373;48.110;11.522;2022-09-09T11:39:05;7.60;;;3.40;;
16520;SDS011;8373;48.110;11.522;2022-09-09T11:41:43;6.87;;;3.00;;
16520;SDS011;8373;48.110;11.522;2022-09-09T11:44:10;6.07;;;2.83;;
16520;SDS011;8373;48.110;11.522;2022-09-09T11:46:40;7.30;;;3.00;;
16520;SDS011;8373;48.110;11.522;2022-09-09T11:49:22;10.20;;;3.80;;
16520;SDS011;8373;48.110;11.522;2022-09-09T11:51:54;8.93;;;3.23;;
16520;SDS011;8373;48.110;11.522;2022-09-09T11:54:27;7.67;;;2.93;;
16520;SDS011;8373;48.110;11.522;2022-09-09T11:56:56;16.40;;;3.03;;
16520;SDS011;8373;48.110;11.522;2022-09-09T11:59:24;13.90;;;3.43;;
16520;SDS011;8373;48.110;11.522;2022-09-09T12:01:54;7.20;;;3.40;;
16520;SDS011;8373;48.110;11.522;2022-09-09T12:04:27;5.23;;;2.67;;
16520;SDS011;8373;48.110;11.522;2022-09-09T12:07:20;5.40;;;2.90;;
16520;SDS011;8373;48.110;11.522;2022-09-09T12:09:55;11.10;;;3.17;;
16520;SDS011;8373;48.110;11.522;2022-09-09T12:12:29;6.00;;;2.40;;
16520;SDS011;8373;48.110;11.522;2022-09-09T12:15:03;9.03;;;3.20;;
16520;SDS011;8373;48.110;11.522;2022-09-09T12:17:48;7.30;;;3.00;;
16520;SDS011;8373;48.110;11.522;2022-09-09T12:20:17;8.13;;;3.30;;
16520;SDS011;8373;48.110;11.522;2022-09-09T12:22:51;6.00;;;3.07;;
16520;SDS011;8373;48.110;11.522;2022-09-09T12:25:29;5.80;;;3.00;;
16520;SDS011;8373;48.110;11.522;2022-09-09T12:28:04;11.43;;;2.90;;
16520;SDS011;8373;48.110;11.522;2022-09-09T12:30:37;7.33;;;3.70;;
16520;SDS011;8373;48.110;11.522;2022-09-09T12:33:13;6.93;;;3.10;;
16520;SDS011;8373;48.110;11.522;2022-09-09T12:35:44;5.60;;;2.67;;
16520;SDS011;8373;48.110;11.522;2022-09-09T12:38:19;9.17;;;3.00;;
16520;SDS011;8373;48.110;11.522;2022-09-09T12:40:54;8.63;;;3.13;;
16520;SDS011;8373;48.110;11.522;2022-09-09T12:43:23;9.97;;;3.20;;
16520;SDS011;8373;48.110;11.522;2022-09-09T12:45:53;7.70;;;3.47;;
16520;SDS011;8373;48.110;11.522;2022-09-09T12:48:24;9.77;;;3.17;;
16520;SDS011;8373;48.110;11.522;2022-09-09T12:50:58;9.23;;;3.60;;
16520;SDS011;8373;48.110;11.522;2022-09-09T12:53:29;8.13;;;2.90;;
16520;SDS011;8373;48.110;11.522;2022-09-09T12:55:59;8.60;;;2.53;;
16520;SDS011;8373;48.110;11.522;2022-09-09T12:58:28;5.97;;;3.07;;
16520;SDS011;8373;48.110;11.522;2022-09-09T13:01:00;7.83;;;2.57;;
16520;SDS011;8373;48.110;11.522;2022-09-09T13:03:29;7.10;;;3.13;;
16520;SDS011;8373;48.110;11.522;2022-09-09T13:05:57;9.20;;;3.00;;
16520;SDS011;8373;48.110;11.522;2022-09-09T13:08:37;8.43;;;2.73;;
16520;SDS011;8373;48.110;11.522;2022-09-09T13:11:04;10.80;;;2.80;;
16520;SDS011;8373;48.110;11.522;2022-09-09T13:13:36;9.03;;;2.70;;
16520;SDS011;8373;48.110;11.522;2022-09-09T13:16:04;14.43;;;2.87;;
16520;SDS011;8373;48.110;11.522;2022-09-09T13:18:35;9.43;;;2.97;;
16520;SDS011;8373;48.110;11.522;2022-09-09T13:21:05;5.70;;;2.43;;
16520;SDS011;8373;48.110;11.522;2022-09-09T13:23:33;7.43;;;2.30;;
16520;SDS011;8373;48.110;11.522;2022-09-09T13:26:04;11.03;;;2.87;;
16520;SDS011;8373;48.110;11.522;2022-09-09T13:28:32;5.17;;;2.27;;
16520;SDS011;8373;48.110;11.522;2022-09-09T13:31:00;11.77;;;3.30;;
16520;SDS011;8373;48.110;11.522;2022-09-09T13:33:29;5.57;;;2.23;;
16520;SDS011;8373;48.110;11.522;2022-09-09T13:35:58;8.50;;;2.57;;
16520;SDS011;8373;48.110;11.522;2022-09-09T13:38:28;6.50;;;2.40;;
16520;SDS011;8373;48.110;11.522;2022-09-09T13:40:57;6.50;;;2.80;;
16520;SDS011;8373;48.110;11.522;2022-09-09T13:43:29;5.73;;;2.47;;
16520;SDS011;8373;48.110;11.522;2022-09-09T13:46:00;6.53;;;2.47;;
16520;SDS011;8373;48.110;11.522;2022-09-09T13:48:28;5.60;;;2.47;;
16520;SDS011;8373;48.110;11.522;2022-09-09T13:50:57;7.20;;;2.30;;
16520;SDS011;8373;48.110;11.522;2022-09-09T13:53:30;6.53;;;2.60;;
16520;SDS011;8373;48.110;11.522;2022-09-09T13:55:57;6.40;;;3.43;;
16520;SDS011;8373;48.110;11.522;2022-09-09T13:58:26;6.90;;;2.63;;
16520;SDS011;8373;48.110;11.522;2022-09-09T14:00:54;7.10;;;2.80;;
16520;SDS011;8373;48.110;11.522;2022-09-09T14:03:22;5.53;;;2.73;;
16520;SDS011;8373;48.110;11.522;2022-09-09T14:05:49;6.63;;;2.40;;
16520;SDS011;8373;48.110;11.522;2022-09-09T14:08:20;11.10;;;2.50;;
16520;SDS011;8373;48.110;11.522;2022-09-09T14:10:50;6.30;;;2.33;;
16520;SDS011;8373;48.110;11.522;2022-09-09T14:13:17;8.37;;;2.60;;
16520;SDS011;8373;48.110;11.522;2022-09-09T14:15:47;6.60;;;2.80;;
16520;SDS011;8373;48.110;11.522;2022-09-09T14:18:16;6.03;;;2.20;;
16520;SDS011;8373;48.110;11.522;2022-09-09T14:20:43;8.50;;;3.00;;
16520;SDS011;8373;48.110;11.522;2022-09-09T14:23:11;7.53;;;3.03;;
16520;SDS011;8373;48.110;11.522;2022-09-09T14:25:39;7.30;;;2.40;;
16520;SDS011;8373;48.110;11.522;2022-09-09T14:28:09;6.77;;;2.73;;
16520;SDS011;8373;48.110;11.522;2022-09-09T14:30:38;8.60;;;2.87;;
16520;SDS011;8373;48.110;11.522;2022-09-09T14:33:05;8.40;;;2.77;;
16520;SDS011;8373;48.110;11.522;2022-09-09T14:35:34;12.13;;;3.27;;
16520;SDS011;8373;48.110;11.522;2022-09-09T14:38:02;9.23;;;2.53;;
16520;SDS011;8373;48.110;11.522;2022-09-09T14:40:29;7.57;;;2.83;;
16520;SDS011;8373;48.110;11.522;2022-09-09T14:42:57;6.53;;;2.50;;
16520;SDS011;8373;48.110;11.522;2022-09-09T14:45:24;9.70;;;2.50;;
16520;SDS011;8373;48.110;11.522;2022-09-09T14:47:51;8.33;;;2.53;;
16520;SDS011;8373;48.110;11.522;2022-09-09T14:50:18;10.20;;;2.43;;
16520;SDS011;8373;48.110;11.522;2022-09-09T14:52:47;10.07;;;3.00;;
16520;SDS011;8373;48.110;11.522;2022-09-09T14:55:15;6.73;;;2.97;;
16520;SDS011;8373;48.110;11.522;2022-09-09T14:57:43;7.10;;;2.70;;
16520;SDS011;8373;48.110;11.522;2022-09-09T15:00:10;8.70;;;2.57;;
16520;SDS011;8373;48.110;11.522;2022-09-09T15:02:38;6.80;;;2.57;;
16520;SDS011;8373;48.110;11.522;2022-09-09T15:05:06;5.50;;;2.70;;
16520;SDS011;8373;48.110;11.522;2022-09-09T15:07:33;7.10;;;3.10;;
16520;SDS011;8373;48.110;11.522;2022-09-09T15:10:02;6.77;;;2.73;;
16520;SDS011;8373;48.110;11.522;2022-09-09T15:12:29;7.27;;;2.57;;
16520;SDS011;8373;48.110;11.522;2022-09-09T15:14:56;5.40;;;2.30;;
16520;SDS011;8373;48.110;11.522;2022-09-09T15:17:23;5.90;;;2.70;;
16520;SDS011;8373;48.110;11.522;2022-09-09T15:19:52;11.13;;;2.77;;
16520;SDS011;8373;48.110;11.522;2022-09-09T15:22:20;6.07;;;2.93;;
16520;SDS011;8373;48.110;11.522;2022-09-09T15:24:47;9.03;;;2.77;;
16520;SDS011;8373;48.110;11.522;2022-09-09T15:27:15;7.83;;;2.60;;
16520;SDS011;8373;48.110;11.522;2022-09-09T15:29:43;7.27;;;2.93;;
16520;SDS011;8373;48.110;11.522;2022-09-09T15:32:10;11.97;;;3.23;;
16520;SDS011;8373;48.110;11.522;2022-09-09T15:34:37;9.37;;;2.97;;
16520;SDS011;8373;48.110;11.522;2022-09-09T15:37:04;6.43;;;2.63;;
16520;SDS011;8373;48.110;11.522;2022-09-09T15:39:32;11.33;;;2.90;;
16520;SDS011;8373;48.110;11.522;2022-09-09T15:41:59;10.80;;;3.13;;
16520;SDS011;8373;48.110;11.522;2022-09-09T15:44:28;7.27;;;2.60;;
16520;SDS011;8373;48.110;11.522;2022-09-09T15:46:55;7.33;;;2.80;;
16520;SDS011;8373;48.110;11.522;2022-09-09T15:49:22;13.70;;;3.00;;
16520;SDS011;8373;48.110;11.522;2022-09-09T15:51:51;6.50;;;2.60;;
16520;SDS011;8373;48.110;11.522;2022-09-09T15:54:20;6.27;;;2.80;;
16520;SDS011;8373;48.110;11.522;2022-09-09T15:56:50;7.80;;;2.67;;
16520;SDS011;8373;48.110;11.522;2022-09-09T15:59:18;7.50;;;2.97;;
16520;SDS011;8373;48.110;11.522;2022-09-09T16:01:46;11.27;;;3.63;;
16520;SDS011;8373;48.110;11.522;2022-09-09T16:04:16;6.90;;;2.90;;
16520;SDS011;8373;48.110;11.522;2022-09-09T16:06:48;9.77;;;3.07;;
16520;SDS011;8373;48.110;11.522;2022-09-09T16:09:16;7.00;;;2.67;;
16520;SDS011;8373;48.110;11.522;2022-09-09T16:11:44;14.27;;;3.40;;
16520;SDS011;8373;48.110;11.522;2022-09-09T16:14:11;7.70;;;3.03;;
16520;SDS011;8373;48.110;11.522;2022-09-09T16:16:40;8.27;;;3.33;;
16520;SDS011;8373;48.110;11.522;2022-09-09T16:19:10;6.67;;;2.80;;
16520;SDS011;8373;48.110;11.522;2022-09-09T16:21:39;7.70;;;2.60;;
16520;SDS011;8373;48.110;11.522;2022-09-09T16:24:08;8.00;;;3.27;;
16520;SDS011;8373;48.110;11.522;2022-09-09T16:26:37;8.40;;;2.97;;
16520;SDS011;8373;48.110;11.522;2022-09-09T16:29:08;9.90;;;3.07;;
16520;SDS011;8373;48.110;11.522;2022-09-09T16:31:35;8.50;;;2.80;;
16520;SDS011;8373;48.110;11.522;2022-09-09T16:34:02;6.93;;;2.80;;
16520;SDS011;8373;48.110;11.522;2022-09-09T16:36:32;7.50;;;2.80;;
16520;SDS011;8373;48.110;11.522;2022-09-09T16:39:01;5.90;;;2.70;;
16520;SDS011;8373;48.110;11.522;2022-09-09T16:41:29;10.80;;;2.80;;
16520;SDS011;8373;48.110;11.522;2022-09-09T16:43:58;8.20;;;2.87;;
16520;SDS011;8373;48.110;11.522;2022-09-09T16:46:27;5.33;;;2.40;;
16520;SDS011;8373;48.110;11.522;2022-09-09T16:48:56;6.23;;;2.50;;
16520;SDS011;8373;48.110;11.522;2022-09-09T16:51:25;6.60;;;2.50;;
16520;SDS011;8373;48.110;11.522;2022-09-09T16:53:54;6.53;;;2.40;;
16520;SDS011;8373;48.110;11.522;2022-09-09T16:56:25;7.00;;;2.40;;
16520;SDS011;8373;48.110;11.522;2022-09-09T16:58:53;7.53;;;2.70;;
16520;SDS011;8373;48.110;11.522;2022-09-09T17:01:22;6.13;;;2.83;;
16520;SDS011;8373;48.110;11.522;2022-09-09T17:03:51;8.53;;;3.10;;
16520;SDS011;8373;48.110;11.522;2022-09-09T17:06:19;6.67;;;2.90;;
16520;SDS011;8373;48.110;11.522;2022-09-09T17:08:46;8.57;;;2.80;;
16520;SDS011;8373;48.110;11.522;2022-09-09T17:11:16;5.87;;;2.90;;
16520;SDS011;8373;48.110;11.522;2022-09-09T17:13:44;8.93;;;3.27;;
16520;SDS011;8373;48.110;11.522;2022-09-09T17:16:12;8.23;;;3.17;;
16520;SDS011;8373;48.110;11.522;2022-09-09T17:18:41;9.97;;;3.20;;
16520;SDS011;8373;48.110;11.522;2022-09-09T17:21:09;8.10;;;3.33;;
16520;SDS011;8373;48.110;11.522;2022-09-09T17:23:39;10.00;;;4.20;;
16520;SDS011;8373;48.110;11.522;2022-09-09T17:26:07;10.63;;;3.17;;
16520;SDS011;8373;48.110;11.522;2022-09-09T17:28:37;8.73;;;3.50;;
16520;SDS011;8373;48.110;11.522;2022-09-09T17:31:05;9.70;;;3.43;;
16520;SDS011;8373;48.110;11.522;2022-09-09T17:33:34;8.47;;;3.23;;
16520;SDS011;8373;48.110;11.522;2022-09-09T17:36:06;9.30;;;3.10;;
16520;SDS011;8373;48.110;11.522;2022-09-09T17:38:34;7.20;;;3.60;;
16520;SDS011;8373;48.110;11.522;2022-09-09T17:41:02;11.07;;;3.97;;
16520;SDS011;8373;48.110;11.522;2022-09-09T17:43:31;7.53;;;3.10;;
16520;SDS011;8373;48.110;11.522;2022-09-09T17:46:06;8.63;;;3.47;;
16520;SDS011;8373;48.110;11.522;2022-09-09T17:48:33;11.70;;;3.70;;
16520;SDS011;8373;48.110;11.522;2022-09-09T17:51:02;8.63;;;3.40;;
16520;SDS011;8373;48.110;11.522;2022-09-09T17:53:30;11.17;;;3.50;;
16520;SDS011;8373;48.110;11.522;2022-09-09T17:56:02;12.90;;;3.77;;
16520;SDS011;8373;48.110;11.522;2022-09-09T17:58:31;12.83;;;3.93;;
16520;SDS011;8373;48.110;11.522;2022-09-09T18:01:01;11.60;;;4.80;;
16520;SDS011;8373;48.110;11.522;2022-09-09T18:03:31;10.47;;;3.43;;
16520;SDS011;8373;48.110;11.522;2022-09-09T18:06:00;10.97;;;3.60;;
16520;SDS011;8373;48.110;11.522;2022-09-09T18:08:28;22.60;;;3.77;;
16520;SDS011;8373;48.110;11.522;2022-09-09T18:10:55;10.13;;;4.47;;
16520;SDS011;8373;48.110;11.522;2022-09-09T18:13:22;13.43;;;3.60;;
16520;SDS011;8373;48.110;11.522;2022-09-09T18:15:49;19.20;;;4.00;;
16520;SDS011;8373;48.110;11.522;2022-09-09T18:18:16;10.77;;;4.00;;
16520;SDS011;8373;48.110;11.522;2022-09-09T18:20:45;10.27;;;4.30;;
16520;SDS011;8373;48.110;11.522;2022-09-09T18:23:12;10.63;;;3.53;;
16520;SDS011;8373;48.110;11.522;2022-09-09T18:25:39;10.90;;;4.00;;
16520;SDS011;8373;48.110;11.522;2022-09-09T18:28:06;9.60;;;3.87;;
16520;SDS011;8373;48.110;11.522;2022-09-09T18:30:37;8.80;;;3.60;;
16520;SDS011;8373;48.110;11.522;2022-09-09T18:33:05;12.07;;;3.97;;
16520;SDS011;8373;48.110;11.522;2022-09-09T18:35:34;7.47;;;3.27;;
16520;SDS011;8373;48.110;11.522;2022-09-09T18:38:02;7.33;;;3.13;;
16520;SDS011;8373;48.110;11.522;2022-09-09T18:40:30;5.90;;;3.30;;
16520;SDS011;8373;48.110;11.522;2022-09-09T18:42:57;9.93;;;3.43;;
16520;SDS011;8373;48.110;11.522;2022-09-09T18:45:24;8.00;;;3.00;;
16520;SDS011;8373;48.110;11.522;2022-09-09T18:47:51;8.40;;;3.20;;
16520;SDS011;8373;48.110;11.522;2022-09-09T18:50:18;8.10;;;3.40;;
16520;SDS011;8373;48.110;11.522;2022-09-09T18:52:45;8.53;;;2.97;;
16520;SDS011;8373;48.110;11.522;2022-09-09T18:55:14;8.70;;;3.83;;
16520;SDS011;8373;48.110;11.522;2022-09-09T18:57:41;12.10;;;3.47;;
16520;SDS011;8373;48.110;11.522;2022-09-09T19:00:09;14.87;;;4.00;;
16520;SDS011;8373;48.110;11.522;2022-09-09T19:02:36;13.40;;;3.67;;
16520;SDS011;8373;48.110;11.522;2022-09-09T19:05:04;7.73;;;3.47;;
16520;SDS011;8373;48.110;11.522;2022-09-09T19:07:31;9.93;;;3.60;;